Time,TemperatureF,DewpointF,PressureIn,WindDirection,WindDirectionDegrees,WindSpeedMPH,WindSpeedGustMPH,Humidity,HourlyPrecipIn,Conditions,Clouds,dailyrainin,SoftwareType,DateUTC
2013-09-05 00:00:00,59.6,56.0,30.03,WNW,302,0.0,0.0,88,0.00,,,0.00,Wunderground v.1.15,2013-09-05 04:00:00,
2013-09-05 00:01:00,59.6,56.0,30.03,WNW,302,0.0,0.0,88,0.00,,,0.00,Wunderground v.1.15,2013-09-05 04:01:00,
2013-09-05 00:02:00,59.5,55.9,30.03,WNW,302,0.0,0.0,88,0.00,,,0.00,Wunderground v.1.15,2013-09-05 04:02:00,
2013-09-05 00:06:00,59.4,55.8,30.03,WNW,302,0.0,0.0,88,0.00,,,0.00,Wunderground v.1.15,2013-09-05 04:06:00,
2013-09-05 00:11:00,59.3,55.7,30.03,WNW,302,0.0,0.0,88,0.00,,,0.00,Wunderground v.1.15,2013-09-05 04:11:00,
2013-09-05 00:19:00,59.0,55.4,30.03,WNW,302,0.0,0.0,88,0.00,,,0.00,Wunderground v.1.15,2013-09-05 04:19:00,
2013-09-05 00:25:00,58.8,55.6,30.03,WNW,302,0.0,0.0,89,0.00,,,0.00,Wunderground v.1.15,2013-09-05 04:25:00,
2013-09-05 00:31:00,58.6,55.4,30.03,WNW,302,0.0,1.0,89,0.00,,,0.00,Wunderground v.1.15,2013-09-05 04:31:00,
2013-09-05 00:36:00,58.2,55.0,30.03,WNW,302,0.0,1.0,89,0.00,,,0.00,Wunderground v.1.15,2013-09-05 04:36:00,
2013-09-05 00:42:00,58.0,55.1,30.03,WNW,302,0.0,0.0,90,0.00,,,0.00,Wunderground v.1.15,2013-09-05 04:42:00,
2013-09-05 00:51:00,57.9,55.0,30.03,WNW,302,0.0,0.0,90,0.00,,,0.00,Wunderground v.1.15,2013-09-05 04:51:00,
2013-09-05 00:56:00,57.8,54.9,30.03,WNW,302,0.0,1.0,90,0.00,,,0.00,Wunderground v.1.15,2013-09-05 04:56:00,
2013-09-05 01:02:00,57.5,54.6,30.04,WNW,302,0.0,0.0,90,0.00,,,0.00,Wunderground v.1.15,2013-09-05 05:02:00,
2013-09-05 01:07:00,57.3,54.4,30.04,WNW,302,0.0,1.0,90,0.00,,,0.00,Wunderground v.1.15,2013-09-05 05:07:00,
2013-09-05 01:16:00,57.2,54.6,30.04,WNW,302,0.0,0.0,91,0.00,,,0.00,Wunderground v.1.15,2013-09-05 05:16:00,
2013-09-05 01:21:00,57.3,54.7,30.04,WNW,302,0.0,0.0,91,0.00,,,0.00,Wunderground v.1.15,2013-09-05 05:21:00,
2013-09-05 01:29:00,57.3,54.7,30.03,WNW,302,0.0,0.0,91,0.00,,,0.00,Wunderground v.1.15,2013-09-05 05:29:00,
2013-09-05 01:36:00,57.4,54.8,30.03,WNW,302,0.0,0.0,91,0.00,,,0.00,Wunderground v.1.15,2013-09-05 05:36:00,
2013-09-05 01:41:00,57.2,54.3,30.03,WNW,302,0.0,0.0,90,0.00,,,0.00,Wunderground v.1.15,2013-09-05 05:41:00,
2013-09-05 01:47:00,56.6,53.7,30.03,WNW,302,0.0,0.0,90,0.00,,,0.00,Wunderground v.1.15,2013-09-05 05:47:00,
2013-09-05 01:54:00,56.1,53.2,30.03,WNW,302,0.0,0.0,90,0.00,,,0.00,Wunderground v.1.15,2013-09-05 05:54:00,
2013-09-05 02:01:00,56.3,53.7,30.03,WNW,302,0.0,0.0,91,0.00,,,0.00,Wunderground v.1.15,2013-09-05 06:01:00,
2013-09-05 02:06:00,56.5,54.2,30.03,WNW,302,0.0,0.0,92,0.00,,,0.00,Wunderground v.1.15,2013-09-05 06:06:00,
2013-09-05 02:11:00,56.4,54.1,30.03,WNW,302,0.0,0.0,92,0.00,,,0.00,Wunderground v.1.15,2013-09-05 06:11:00,
2013-09-05 02:17:00,56.2,53.6,30.03,WNW,302,0.0,0.0,91,0.00,,,0.00,Wunderground v.1.15,2013-09-05 06:17:00,
2013-09-05 02:23:00,55.6,53.0,30.03,WNW,302,0.0,0.0,91,0.00,,,0.00,Wunderground v.1.15,2013-09-05 06:23:00,
2013-09-05 02:28:00,55.1,52.5,30.03,WNW,302,0.0,0.0,91,0.00,,,0.00,Wunderground v.1.15,2013-09-05 06:28:00,
2013-09-05 02:36:00,54.4,51.8,30.03,WNW,302,0.0,0.0,91,0.00,,,0.00,Wunderground v.1.15,2013-09-05 06:36:00,
2013-09-05 02:42:00,54.3,52.0,30.03,WNW,302,0.0,0.0,92,0.00,,,0.00,Wunderground v.1.15,2013-09-05 06:42:00,
2013-09-05 02:47:00,54.1,51.8,30.03,WNW,302,0.0,0.0,92,0.00,,,0.00,Wunderground v.1.15,2013-09-05 06:47:00,
2013-09-05 02:52:00,53.9,51.6,30.02,WNW,302,0.0,0.0,92,0.00,,,0.00,Wunderground v.1.15,2013-09-05 06:52:00,
2013-09-05 02:57:00,53.6,51.3,30.02,WNW,302,0.0,0.0,92,0.00,,,0.00,Wunderground v.1.15,2013-09-05 06:57:00,
2013-09-05 03:02:00,53.3,51.0,30.02,WNW,302,0.0,0.0,92,0.00,,,0.00,Wunderground v.1.15,2013-09-05 07:02:00,
2013-09-05 03:08:00,53.1,50.8,30.02,WNW,302,0.0,0.0,92,0.00,,,0.00,Wunderground v.1.15,2013-09-05 07:08:00,
2013-09-05 03:16:00,53.1,51.1,30.02,WNW,302,0.0,0.0,93,0.00,,,0.00,Wunderground v.1.15,2013-09-05 07:16:00,
2013-09-05 03:22:00,53.1,51.1,30.02,WNW,302,0.0,0.0,93,0.00,,,0.00,Wunderground v.1.15,2013-09-05 07:22:00,
2013-09-05 03:27:00,53.3,51.6,30.02,WNW,302,0.0,0.0,94,0.00,,,0.00,Wunderground v.1.15,2013-09-05 07:27:00,
2013-09-05 03:32:00,53.1,51.1,30.02,WNW,302,0.0,0.0,93,0.00,,,0.00,Wunderground v.1.15,2013-09-05 07:32:00,
2013-09-05 03:39:00,52.7,50.7,30.02,WNW,302,0.0,0.0,93,0.00,,,0.00,Wunderground v.1.15,2013-09-05 07:39:00,
2013-09-05 03:44:00,53.0,51.3,30.02,WNW,302,0.0,0.0,94,0.00,,,0.00,Wunderground v.1.15,2013-09-05 07:44:00,
2013-09-05 03:49:00,53.8,52.4,30.02,WNW,302,0.0,0.0,95,0.00,,,0.00,Wunderground v.1.15,2013-09-05 07:49:00,
2013-09-05 03:55:00,54.1,52.4,30.02,WNW,302,0.0,0.0,94,0.00,,,0.00,Wunderground v.1.15,2013-09-05 07:55:00,
2013-09-05 04:00:00,54.1,52.4,30.02,WNW,302,0.0,0.0,94,0.00,,,0.00,Wunderground v.1.15,2013-09-05 08:00:00,
2013-09-05 04:08:00,53.7,52.0,30.02,WNW,302,0.0,0.0,94,0.00,,,0.00,Wunderground v.1.15,2013-09-05 08:08:00,
2013-09-05 04:13:00,53.4,51.7,30.02,WNW,302,0.0,0.0,94,0.00,,,0.00,Wunderground v.1.15,2013-09-05 08:13:00,
2013-09-05 04:19:00,53.3,51.6,30.02,WNW,302,0.0,0.0,94,0.00,,,0.00,Wunderground v.1.15,2013-09-05 08:19:00,
2013-09-05 04:25:00,53.3,51.6,30.03,WNW,302,0.0,0.0,94,0.00,,,0.00,Wunderground v.1.15,2013-09-05 08:25:00,
2013-09-05 04:32:00,52.7,50.7,30.03,WNW,302,0.0,0.0,93,0.00,,,0.00,Wunderground v.1.15,2013-09-05 08:32:00,
2013-09-05 04:39:00,52.5,50.5,30.03,WNW,302,0.0,0.0,93,0.00,,,0.00,Wunderground v.1.15,2013-09-05 08:39:00,
2013-09-05 04:44:00,52.4,50.7,30.02,WNW,302,0.0,0.0,94,0.00,,,0.00,Wunderground v.1.15,2013-09-05 08:44:00,
2013-09-05 04:50:00,52.4,50.7,30.02,WNW,302,0.0,0.0,94,0.00,,,0.00,Wunderground v.1.15,2013-09-05 08:50:00,
2013-09-05 04:55:00,52.7,51.0,30.03,WNW,302,0.0,0.0,94,0.00,,,0.00,Wunderground v.1.15,2013-09-05 08:55:00,
2013-09-05 05:00:00,52.3,50.6,30.03,WNW,302,0.0,0.0,94,0.00,,,0.00,Wunderground v.1.15,2013-09-05 09:00:00,
2013-09-05 05:06:00,52.7,51.3,30.02,WNW,302,0.0,0.0,95,0.00,,,0.00,Wunderground v.1.15,2013-09-05 09:06:00,
2013-09-05 05:12:00,52.6,50.9,30.03,WNW,302,0.0,0.0,94,0.00,,,0.00,Wunderground v.1.15,2013-09-05 09:12:00,
2013-09-05 05:17:00,52.2,50.5,30.03,WNW,302,0.0,0.0,94,0.00,,,0.00,Wunderground v.1.15,2013-09-05 09:17:00,
2013-09-05 05:23:00,51.8,50.1,30.03,WNW,302,0.0,0.0,94,0.00,,,0.00,Wunderground v.1.15,2013-09-05 09:23:00,
2013-09-05 05:32:00,51.7,50.0,30.03,WNW,302,0.0,0.0,94,0.00,,,0.00,Wunderground v.1.15,2013-09-05 09:32:00,
2013-09-05 05:37:00,51.5,49.8,30.03,WNW,302,0.0,0.0,94,0.00,,,0.00,Wunderground v.1.15,2013-09-05 09:37:00,
2013-09-05 05:42:00,51.4,49.7,30.02,WNW,302,0.0,0.0,94,0.00,,,0.00,Wunderground v.1.15,2013-09-05 09:42:00,
2013-09-05 05:47:00,51.6,50.2,30.02,WNW,302,0.0,0.0,95,0.00,,,0.00,Wunderground v.1.15,2013-09-05 09:47:00,
2013-09-05 05:52:00,51.6,50.2,30.02,WNW,302,0.0,0.0,95,0.00,,,0.00,Wunderground v.1.15,2013-09-05 09:52:00,
2013-09-05 05:58:00,51.5,50.1,30.03,WNW,302,0.0,0.0,95,0.00,,,0.00,Wunderground v.1.15,2013-09-05 09:58:00,
2013-09-05 06:04:00,51.5,50.1,30.03,WNW,302,0.0,2.0,95,0.00,,,0.00,Wunderground v.1.15,2013-09-05 10:04:00,
2013-09-05 06:10:00,51.2,49.8,30.03,WNW,302,0.0,0.0,95,0.00,,,0.00,Wunderground v.1.15,2013-09-05 10:10:00,
2013-09-05 06:16:00,51.3,49.9,30.03,WNW,302,0.0,0.0,95,0.00,,,0.00,Wunderground v.1.15,2013-09-05 10:16:00,
2013-09-05 06:21:00,51.2,49.8,30.03,WNW,302,0.0,0.0,95,0.00,,,0.00,Wunderground v.1.15,2013-09-05 10:21:00,
2013-09-05 06:27:00,51.2,49.8,30.03,WNW,302,0.0,0.0,95,0.00,,,0.00,Wunderground v.1.15,2013-09-05 10:27:00,
2013-09-05 06:32:00,51.5,50.4,30.03,WNW,302,0.0,0.0,96,0.00,,,0.00,Wunderground v.1.15,2013-09-05 10:32:00,
2013-09-05 06:38:00,51.3,49.9,30.03,WNW,302,0.0,0.0,95,0.00,,,0.00,Wunderground v.1.15,2013-09-05 10:38:00,
2013-09-05 06:43:00,51.2,49.8,30.03,WNW,302,0.0,0.0,95,0.00,,,0.00,Wunderground v.1.15,2013-09-05 10:43:00,
2013-09-05 06:48:00,51.2,49.8,30.03,WNW,302,0.0,1.0,95,0.00,,,0.00,Wunderground v.1.15,2013-09-05 10:48:00,
2013-09-05 06:53:00,51.3,49.9,30.03,WNW,302,0.0,0.0,95,0.00,,,0.00,Wunderground v.1.15,2013-09-05 10:53:00,
2013-09-05 07:01:00,51.9,50.8,30.03,WNW,302,0.0,0.0,96,0.00,,,0.00,Wunderground v.1.15,2013-09-05 11:01:00,
2013-09-05 07:06:00,52.7,51.6,30.03,WNW,302,0.0,0.0,96,0.00,,,0.00,Wunderground v.1.15,2013-09-05 11:06:00,
2013-09-05 07:13:00,52.8,51.7,30.03,WNW,302,0.0,0.0,96,0.00,,,0.00,Wunderground v.1.15,2013-09-05 11:13:00,
2013-09-05 07:19:00,53.5,52.4,30.04,WNW,302,0.0,0.0,96,0.00,,,0.00,Wunderground v.1.15,2013-09-05 11:19:00,
2013-09-05 07:25:00,54.3,53.2,30.04,WNW,302,0.0,0.0,96,0.00,,,0.00,Wunderground v.1.15,2013-09-05 11:25:00,
2013-09-05 07:31:00,55.0,53.9,30.04,WNW,302,0.0,0.0,96,0.00,,,0.00,Wunderground v.1.15,2013-09-05 11:31:00,
2013-09-05 07:36:00,56.0,54.9,30.04,WNW,302,0.0,0.0,96,0.00,,,0.00,Wunderground v.1.15,2013-09-05 11:36:00,
2013-09-05 07:41:00,56.9,55.5,30.04,WNW,302,0.0,0.0,95,0.00,,,0.00,Wunderground v.1.15,2013-09-05 11:41:00,
2013-09-05 07:47:00,57.8,56.1,30.04,WNW,302,0.0,0.0,94,0.00,,,0.00,Wunderground v.1.15,2013-09-05 11:47:00,
2013-09-05 07:52:00,58.7,56.4,30.04,WNW,302,0.0,0.0,92,0.00,,,0.00,Wunderground v.1.15,2013-09-05 11:52:00,
2013-09-05 07:59:00,59.7,56.8,30.04,WNW,302,0.0,2.0,90,0.00,,,0.00,Wunderground v.1.15,2013-09-05 11:59:00,
2013-09-05 08:05:00,60.5,56.9,30.04,WNW,302,0.0,0.0,88,0.00,,,0.00,Wunderground v.1.15,2013-09-05 12:05:00,
2013-09-05 08:11:00,61.3,57.4,30.04,WNW,302,0.0,0.0,87,0.00,,,0.00,Wunderground v.1.15,2013-09-05 12:11:00,
2013-09-05 08:17:00,62.3,57.7,30.04,WNW,302,0.0,0.0,85,0.00,,,0.00,Wunderground v.1.15,2013-09-05 12:17:00,
2013-09-05 08:22:00,63.2,58.6,30.04,WNW,302,0.0,0.0,85,0.00,,,0.00,Wunderground v.1.15,2013-09-05 12:22:00,
2013-09-05 08:30:00,64.7,58.4,30.03,WNW,302,0.0,0.0,80,0.00,,,0.00,Wunderground v.1.15,2013-09-05 12:30:00,
2013-09-05 08:36:00,65.9,59.6,30.04,WNW,302,0.0,1.0,80,0.00,,,0.00,Wunderground v.1.15,2013-09-05 12:36:00,
2013-09-05 08:41:00,66.8,59.4,30.04,WNW,302,0.0,0.0,77,0.00,,,0.00,Wunderground v.1.15,2013-09-05 12:41:00,
2013-09-05 08:46:00,67.8,60.0,30.04,WNW,302,0.0,0.0,76,0.00,,,0.00,Wunderground v.1.15,2013-09-05 12:46:00,
2013-09-05 08:51:00,68.5,59.1,30.04,WNW,302,0.0,0.0,72,0.00,,,0.00,Wunderground v.1.15,2013-09-05 12:51:00,
2013-09-05 08:57:00,69.1,59.7,30.04,WNW,302,0.0,2.0,72,0.00,,,0.00,Wunderground v.1.15,2013-09-05 12:57:00,
2013-09-05 09:02:00,69.9,60.1,30.04,WNW,302,0.0,1.0,71,0.00,,,0.00,Wunderground v.1.15,2013-09-05 13:02:00,
2013-09-05 09:08:00,70.8,60.5,30.04,WNW,302,0.0,1.0,70,0.00,,,0.00,Wunderground v.1.15,2013-09-05 13:08:00,
2013-09-05 09:21:00,72.2,60.6,30.04,WNW,302,1.0,3.0,67,0.00,,,0.00,Wunderground v.1.15,2013-09-05 13:21:00,
2013-09-05 09:27:00,72.8,61.2,30.04,WNW,302,1.0,3.0,67,0.00,,,0.00,Wunderground v.1.15,2013-09-05 13:27:00,
2013-09-05 09:34:00,74.0,61.5,30.04,NW,309,0.0,1.0,65,0.00,,,0.00,Wunderground v.1.15,2013-09-05 13:34:00,
2013-09-05 09:40:00,75.1,61.6,30.04,NW,309,0.0,1.0,63,0.00,,,0.00,Wunderground v.1.15,2013-09-05 13:40:00,
2013-09-05 09:46:00,75.0,61.1,30.04,West,277,1.0,2.0,62,0.00,,,0.00,Wunderground v.1.15,2013-09-05 13:46:00,
2013-09-05 09:52:00,74.4,61.9,30.04,NW,304,3.0,3.0,65,0.00,,,0.00,Wunderground v.1.15,2013-09-05 13:52:00,
2013-09-05 09:57:00,74.5,62.0,30.04,WNW,299,2.0,3.0,65,0.00,,,0.00,Wunderground v.1.15,2013-09-05 13:57:00,
2013-09-05 10:02:00,74.8,62.7,30.04,NW,309,2.0,5.0,66,0.00,,,0.00,Wunderground v.1.15,2013-09-05 14:02:00,
2013-09-05 10:07:00,75.3,61.8,30.05,WNW,292,3.0,12.0,63,0.00,,,0.00,Wunderground v.1.15,2013-09-05 14:07:00,
2013-09-05 10:14:00,75.0,62.0,30.05,NW,317,6.0,6.0,64,0.00,,,0.00,Wunderground v.1.15,2013-09-05 14:14:00,
2013-09-05 10:20:00,75.7,62.7,30.05,NW,308,5.0,5.0,64,0.00,,,0.00,Wunderground v.1.15,2013-09-05 14:20:00,
2013-09-05 10:25:00,75.8,62.3,30.05,WNW,291,5.0,9.0,63,0.00,,,0.00,Wunderground v.1.15,2013-09-05 14:25:00,
2013-09-05 10:32:00,76.1,62.1,30.05,NNW,344,5.0,5.0,62,0.00,,,0.00,Wunderground v.1.15,2013-09-05 14:32:00,
2013-09-05 10:39:00,77.0,62.0,30.05,NW,321,3.0,5.0,60,0.00,,,0.00,Wunderground v.1.15,2013-09-05 14:39:00,
2013-09-05 10:44:00,77.3,62.3,30.05,NNW,332,2.0,3.0,60,0.00,,,0.00,Wunderground v.1.15,2013-09-05 14:44:00,
2013-09-05 10:50:00,76.9,61.5,30.05,WNW,288,2.0,8.0,59,0.00,,,0.00,Wunderground v.1.15,2013-09-05 14:50:00,
2013-09-05 10:55:00,75.8,61.4,30.04,NW,308,4.0,4.0,61,0.00,,,0.00,Wunderground v.1.15,2013-09-05 14:55:00,
2013-09-05 11:00:00,75.1,61.6,30.04,WNW,297,4.0,4.0,63,0.00,,,0.00,Wunderground v.1.15,2013-09-05 15:00:00,
2013-09-05 11:07:00,76.3,62.8,30.04,WNW,303,4.0,8.0,63,0.00,,,0.00,Wunderground v.1.15,2013-09-05 15:07:00,
2013-09-05 11:13:00,77.0,62.0,30.04,WNW,294,6.0,12.0,60,0.00,,,0.00,Wunderground v.1.15,2013-09-05 15:13:00,
2013-09-05 11:19:00,77.2,62.2,30.04,WNW,296,6.0,12.0,60,0.00,,,0.00,Wunderground v.1.15,2013-09-05 15:19:00,
2013-09-05 11:25:00,77.2,62.2,30.04,WNW,294,5.0,11.0,60,0.00,,,0.00,Wunderground v.1.15,2013-09-05 15:25:00,
2013-09-05 11:31:00,76.1,62.1,30.04,West,279,5.0,5.0,62,0.00,,,0.00,Wunderground v.1.15,2013-09-05 15:31:00,
2013-09-05 11:37:00,75.9,62.4,30.04,WNW,291,4.0,8.0,63,0.00,,,0.00,Wunderground v.1.15,2013-09-05 15:37:00,
2013-09-05 11:43:00,75.6,61.7,30.04,WNW,294,4.0,7.0,62,0.00,,,0.00,Wunderground v.1.15,2013-09-05 15:43:00,
2013-09-05 11:49:00,75.3,61.8,30.04,NW,304,5.0,8.0,63,0.00,,,0.00,Wunderground v.1.15,2013-09-05 15:49:00,
2013-09-05 11:56:00,75.4,62.4,30.04,WNW,286,4.0,5.0,64,0.00,,,0.00,Wunderground v.1.15,2013-09-05 15:56:00,
2013-09-05 12:04:00,76.7,62.7,30.04,WNW,293,6.0,9.0,62,0.00,,,0.00,Wunderground v.1.15,2013-09-05 16:04:00,
2013-09-05 12:10:00,77.2,62.7,30.04,WNW,291,8.0,8.0,61,0.00,,,0.00,Wunderground v.1.15,2013-09-05 16:10:00,
2013-09-05 12:17:00,78.0,63.9,30.04,WNW,301,7.0,11.0,62,0.00,,,0.00,Wunderground v.1.15,2013-09-05 16:17:00,
2013-09-05 12:22:00,78.2,63.6,30.04,West,266,5.0,8.0,61,0.00,,,0.00,Wunderground v.1.15,2013-09-05 16:22:00,
2013-09-05 12:28:00,76.8,62.8,30.04,WNW,299,6.0,8.0,62,0.00,,,0.00,Wunderground v.1.15,2013-09-05 16:28:00,
2013-09-05 12:33:00,77.0,63.0,30.04,WNW,297,6.0,6.0,62,0.00,,,0.00,Wunderground v.1.15,2013-09-05 16:33:00,
2013-09-05 12:39:00,77.8,63.3,30.04,WNW,296,5.0,6.0,61,0.00,,,0.00,Wunderground v.1.15,2013-09-05 16:39:00,
2013-09-05 12:44:00,77.6,63.1,30.04,WNW,288,6.0,7.0,61,0.00,,,0.00,Wunderground v.1.15,2013-09-05 16:44:00,
2013-09-05 12:49:00,78.4,63.4,30.04,WNW,301,6.0,9.0,60,0.00,,,0.00,Wunderground v.1.15,2013-09-05 16:49:00,
2013-09-05 12:54:00,78.8,64.7,30.03,WSW,250,6.0,7.0,62,0.00,,,0.00,Wunderground v.1.15,2013-09-05 16:54:00,
2013-09-05 13:00:00,79.1,63.5,30.03,WNW,301,5.0,5.0,59,0.00,,,0.00,Wunderground v.1.15,2013-09-05 17:00:00,
2013-09-05 13:06:00,78.7,63.2,30.03,NW,313,5.0,5.0,59,0.00,,,0.00,Wunderground v.1.15,2013-09-05 17:06:00,
2013-09-05 13:11:00,78.9,63.4,30.03,WNW,296,5.0,8.0,59,0.00,,,0.00,Wunderground v.1.15,2013-09-05 17:11:00,
2013-09-05 13:17:00,79.2,63.6,30.03,West,276,5.0,8.0,59,0.00,,,0.00,Wunderground v.1.15,2013-09-05 17:17:00,
2013-09-05 13:22:00,79.5,63.9,30.03,NW,311,6.0,9.0,59,0.00,,,0.00,Wunderground v.1.15,2013-09-05 17:22:00,
2013-09-05 13:28:00,79.2,65.1,30.03,NW,307,6.0,9.0,62,0.00,,,0.00,Wunderground v.1.15,2013-09-05 17:28:00,
2013-09-05 13:35:00,80.2,62.6,30.03,NNW,331,6.0,8.0,55,0.00,,,0.00,Wunderground v.1.15,2013-09-05 17:35:00,
2013-09-05 13:41:00,80.6,64.5,30.03,NW,312,6.0,6.0,58,0.00,,,0.00,Wunderground v.1.15,2013-09-05 17:41:00,
2013-09-05 13:46:00,80.6,63.5,30.02,NW,321,4.0,7.0,56,0.00,,,0.00,Wunderground v.1.15,2013-09-05 17:46:00,
2013-09-05 13:51:00,79.9,62.3,30.02,NNW,338,4.0,5.0,55,0.00,,,0.00,Wunderground v.1.15,2013-09-05 17:51:00,
2013-09-05 13:57:00,80.0,63.4,30.02,NNW,332,5.0,8.0,57,0.00,,,0.00,Wunderground v.1.15,2013-09-05 17:57:00,
2013-09-05 14:02:00,80.9,62.2,30.02,NW,309,4.0,5.0,53,0.00,,,0.00,Wunderground v.1.15,2013-09-05 18:02:00,
2013-09-05 14:07:00,80.9,62.7,30.02,NNW,328,3.0,5.0,54,0.00,,,0.00,Wunderground v.1.15,2013-09-05 18:07:00,
2013-09-05 14:13:00,80.9,62.7,30.02,NW,305,3.0,6.0,54,0.00,,,0.00,Wunderground v.1.15,2013-09-05 18:13:00,
2013-09-05 14:18:00,80.3,61.6,30.02,NNW,340,3.0,7.0,53,0.00,,,0.00,Wunderground v.1.15,2013-09-05 18:18:00,
2013-09-05 14:24:00,79.6,62.0,30.02,NW,308,3.0,5.0,55,0.00,,,0.00,Wunderground v.1.15,2013-09-05 18:24:00,
2013-09-05 14:31:00,79.2,61.1,30.02,West,270,4.0,6.0,54,0.00,,,0.00,Wunderground v.1.15,2013-09-05 18:31:00,
2013-09-05 14:36:00,79.3,61.7,30.01,WNW,293,6.0,7.0,55,0.00,,,0.00,Wunderground v.1.15,2013-09-05 18:36:00,
2013-09-05 14:41:00,79.7,61.6,30.02,NW,319,6.0,6.0,54,0.00,,,0.00,Wunderground v.1.15,2013-09-05 18:41:00,
2013-09-05 14:47:00,80.5,61.3,30.02,WNW,284,5.0,9.0,52,0.00,,,0.00,Wunderground v.1.15,2013-09-05 18:47:00,
2013-09-05 14:54:00,79.5,60.3,30.01,West,273,6.0,14.0,52,0.00,,,0.00,Wunderground v.1.15,2013-09-05 18:54:00,
2013-09-05 14:59:00,80.1,60.9,30.01,NW,325,6.0,14.0,52,0.00,,,0.00,Wunderground v.1.15,2013-09-05 18:59:00,
2013-09-05 15:05:00,81.1,62.3,30.01,NW,304,5.0,9.0,53,0.00,,,0.00,Wunderground v.1.15,2013-09-05 19:05:00,
2013-09-05 15:10:00,81.1,60.1,30.01,NW,325,5.0,5.0,49,0.00,,,0.00,Wunderground v.1.15,2013-09-05 19:10:00,
2013-09-05 15:15:00,80.1,59.8,30.01,WNW,300,7.0,13.0,50,0.00,,,0.00,Wunderground v.1.15,2013-09-05 19:15:00,
2013-09-05 15:21:00,80.4,57.7,30.01,WNW,300,8.0,8.0,46,0.00,,,0.00,Wunderground v.1.15,2013-09-05 19:21:00,
2013-09-05 15:26:00,80.7,59.8,30.01,West,271,8.0,13.0,49,0.00,,,0.00,Wunderground v.1.15,2013-09-05 19:26:00,
2013-09-05 15:32:00,80.3,59.4,30.01,NW,323,8.0,10.0,49,0.00,,,0.00,Wunderground v.1.15,2013-09-05 19:32:00,
2013-09-05 15:37:00,80.3,58.8,30.01,WNW,288,8.0,10.0,48,0.00,,,0.00,Wunderground v.1.15,2013-09-05 19:37:00,
2013-09-05 15:42:00,80.8,59.9,30.01,West,279,8.0,9.0,49,0.00,,,0.00,Wunderground v.1.15,2013-09-05 19:42:00,
2013-09-05 15:47:00,81.3,58.5,30.01,NW,317,7.0,9.0,46,0.00,,,0.00,Wunderground v.1.15,2013-09-05 19:47:00,
2013-09-05 15:53:00,80.8,58.1,30.01,WNW,290,6.0,8.0,46,0.00,,,0.00,Wunderground v.1.15,2013-09-05 19:53:00,
2013-09-05 15:59:00,80.9,58.8,30.01,WNW,284,6.0,8.0,47,0.00,,,0.00,Wunderground v.1.15,2013-09-05 19:59:00,
2013-09-05 16:05:00,80.9,59.4,30.01,West,275,6.0,10.0,48,0.00,,,0.00,Wunderground v.1.15,2013-09-05 20:05:00,
2013-09-05 16:11:00,80.9,58.2,30.01,NW,317,5.0,6.0,46,0.00,,,0.00,Wunderground v.1.15,2013-09-05 20:11:00,
2013-09-05 16:16:00,81.1,59.0,30.01,WNW,290,5.0,8.0,47,0.00,,,0.00,Wunderground v.1.15,2013-09-05 20:16:00,
2013-09-05 16:23:00,80.8,58.1,30.01,WNW,290,8.0,11.0,46,0.00,,,0.00,Wunderground v.1.15,2013-09-05 20:23:00,
2013-09-05 16:29:00,81.1,58.4,30.01,WNW,287,7.0,11.0,46,0.00,,,0.00,Wunderground v.1.15,2013-09-05 20:29:00,
2013-09-05 16:34:00,80.9,57.6,30.01,NNW,331,5.0,7.0,45,0.00,,,0.00,Wunderground v.1.15,2013-09-05 20:34:00,
2013-09-05 16:41:00,80.7,58.0,30.01,NNW,329,4.0,11.0,46,0.00,,,0.00,Wunderground v.1.15,2013-09-05 20:41:00,
2013-09-05 16:47:00,80.6,57.3,30.01,NW,315,5.0,11.0,45,0.00,,,0.00,Wunderground v.1.15,2013-09-05 20:47:00,
2013-09-05 16:52:00,81.1,57.7,30.01,NNW,329,4.0,4.0,45,0.00,,,0.00,Wunderground v.1.15,2013-09-05 20:52:00,
2013-09-05 16:57:00,80.9,57.6,30.01,NW,322,3.0,5.0,45,0.00,,,0.00,Wunderground v.1.15,2013-09-05 20:57:00,
2013-09-05 17:05:00,79.0,56.5,30.01,NW,321,4.0,4.0,46,0.00,,,0.00,Wunderground v.1.15,2013-09-05 21:05:00,
2013-09-05 17:11:00,78.2,57.5,30.02,NW,313,3.0,3.0,49,0.00,,,0.00,Wunderground v.1.15,2013-09-05 21:11:00,
2013-09-05 17:17:00,78.1,56.2,30.01,NW,313,3.0,5.0,47,0.00,,,0.00,Wunderground v.1.15,2013-09-05 21:17:00,
2013-09-05 17:22:00,78.6,57.3,30.02,NW,318,4.0,6.0,48,0.00,,,0.00,Wunderground v.1.15,2013-09-05 21:22:00,
2013-09-05 17:28:00,78.2,56.9,30.01,NW,319,4.0,6.0,48,0.00,,,0.00,Wunderground v.1.15,2013-09-05 21:28:00,
2013-09-05 17:35:00,79.0,55.8,30.02,NW,306,3.0,3.0,45,0.00,,,0.00,Wunderground v.1.15,2013-09-05 21:35:00,
2013-09-05 17:41:00,79.5,56.3,30.02,NNW,337,3.0,3.0,45,0.00,,,0.00,Wunderground v.1.15,2013-09-05 21:41:00,
2013-09-05 17:47:00,79.2,56.0,30.02,WNW,302,3.0,5.0,45,0.00,,,0.00,Wunderground v.1.15,2013-09-05 21:47:00,
2013-09-05 17:53:00,78.8,56.3,30.02,NW,315,4.0,7.0,46,0.00,,,0.00,Wunderground v.1.15,2013-09-05 21:53:00,
2013-09-05 17:59:00,78.3,55.8,30.02,WNW,300,5.0,7.0,46,0.00,,,0.00,Wunderground v.1.15,2013-09-05 21:59:00,
2013-09-05 18:04:00,78.4,56.5,30.03,NNW,327,6.0,6.0,47,0.00,,,0.00,Wunderground v.1.15,2013-09-05 22:04:00,
2013-09-05 18:10:00,78.5,56.6,30.03,West,269,4.0,7.0,47,0.00,,,0.00,Wunderground v.1.15,2013-09-05 22:10:00,
2013-09-05 18:16:00,78.1,55.6,30.03,NW,323,4.0,8.0,46,0.00,,,0.00,Wunderground v.1.15,2013-09-05 22:16:00,
2013-09-05 18:21:00,78.2,55.7,30.03,North,355,4.0,5.0,46,0.00,,,0.00,Wunderground v.1.15,2013-09-05 22:21:00,
2013-09-05 18:26:00,78.0,55.5,30.03,NW,319,3.0,7.0,46,0.00,,,0.00,Wunderground v.1.15,2013-09-05 22:26:00,
2013-09-05 18:32:00,77.5,56.3,30.03,NW,321,3.0,4.0,48,0.00,,,0.00,Wunderground v.1.15,2013-09-05 22:32:00,
2013-09-05 18:38:00,77.3,55.5,30.03,NNW,347,3.0,7.0,47,0.00,,,0.00,Wunderground v.1.15,2013-09-05 22:38:00,
2013-09-05 18:43:00,77.1,54.7,30.03,NW,312,3.0,4.0,46,0.00,,,0.00,Wunderground v.1.15,2013-09-05 22:43:00,
2013-09-05 18:49:00,76.9,55.1,30.04,NW,319,3.0,4.0,47,0.00,,,0.00,Wunderground v.1.15,2013-09-05 22:49:00,
2013-09-05 18:54:00,76.7,55.0,30.04,NW,323,2.0,3.0,47,0.00,,,0.00,Wunderground v.1.15,2013-09-05 22:54:00,
2013-09-05 19:02:00,76.2,55.1,30.04,NNW,329,2.0,3.0,48,0.00,,,0.00,Wunderground v.1.15,2013-09-05 23:02:00,
2013-09-05 19:08:00,75.1,54.6,30.04,NNW,345,2.0,3.0,49,0.00,,,0.00,Wunderground v.1.15,2013-09-05 23:08:00,
2013-09-05 19:14:00,74.4,55.1,30.04,NNW,328,1.0,2.0,51,0.00,,,0.00,Wunderground v.1.15,2013-09-05 23:14:00,
2013-09-05 19:20:00,73.9,54.6,30.04,NNW,346,2.0,2.0,51,0.00,,,0.00,Wunderground v.1.15,2013-09-05 23:20:00,
2013-09-05 19:26:00,73.4,54.2,30.04,WNW,300,2.0,4.0,51,0.00,,,0.00,Wunderground v.1.15,2013-09-05 23:26:00,
2013-09-05 19:31:00,73.1,54.4,30.05,NW,312,2.0,2.0,52,0.00,,,0.00,Wunderground v.1.15,2013-09-05 23:31:00,
2013-09-05 19:39:00,72.6,54.0,30.05,NW,314,1.0,2.0,52,0.00,,,0.00,Wunderground v.1.15,2013-09-05 23:39:00,
2013-09-05 19:44:00,72.3,54.2,30.05,NW,314,1.0,1.0,53,0.00,,,0.00,Wunderground v.1.15,2013-09-05 23:44:00,
2013-09-05 19:50:00,71.8,53.7,30.05,NW,316,0.0,0.0,53,0.00,,,0.00,Wunderground v.1.15,2013-09-05 23:50:00,
2013-09-05 19:59:00,71.1,53.1,30.06,NW,316,0.0,0.0,53,0.00,,,0.00,Wunderground v.1.15,2013-09-05 23:59:00,
2013-09-05 20:05:00,70.6,54.1,30.06,NW,316,0.0,0.0,56,0.00,,,0.00,Wunderground v.1.15,2013-09-06 00:05:00,
2013-09-05 20:12:00,69.8,53.4,30.07,NW,316,0.0,0.0,56,0.00,,,0.00,Wunderground v.1.15,2013-09-06 00:12:00,
2013-09-05 20:17:00,69.5,53.1,30.07,NW,316,0.0,0.0,56,0.00,,,0.00,Wunderground v.1.15,2013-09-06 00:17:00,
2013-09-05 20:22:00,68.6,53.7,30.07,NW,316,0.0,0.0,59,0.00,,,0.00,Wunderground v.1.15,2013-09-06 00:22:00,
2013-09-05 20:27:00,67.4,53.0,30.07,NW,316,0.0,1.0,60,0.00,,,0.00,Wunderground v.1.15,2013-09-06 00:27:00,
2013-09-05 20:32:00,67.5,52.7,30.07,NW,316,0.0,0.0,59,0.00,,,0.00,Wunderground v.1.15,2013-09-06 00:32:00,
2013-09-05 20:38:00,68.4,52.1,30.07,NW,323,0.0,1.0,56,0.00,,,0.00,Wunderground v.1.15,2013-09-06 00:38:00,
2013-09-05 20:44:00,68.8,52.0,30.08,NW,323,1.0,3.0,55,0.00,,,0.00,Wunderground v.1.15,2013-09-06 00:44:00,
2013-09-05 20:49:00,68.8,51.5,30.08,NW,323,1.0,3.0,54,0.00,,,0.00,Wunderground v.1.15,2013-09-06 00:49:00,
2013-09-05 20:55:00,68.7,51.4,30.08,NW,323,1.0,2.0,54,0.00,,,0.00,Wunderground v.1.15,2013-09-06 00:55:00,
2013-09-05 21:01:00,68.8,51.0,30.08,NW,325,1.0,1.0,53,0.00,,,0.00,Wunderground v.1.15,2013-09-06 01:01:00,
2013-09-05 21:06:00,68.5,51.2,30.08,NW,325,0.0,1.0,54,0.00,,,0.00,Wunderground v.1.15,2013-09-06 01:06:00,
2013-09-05 21:12:00,68.0,51.2,30.08,NW,325,0.0,0.0,55,0.00,,,0.00,Wunderground v.1.15,2013-09-06 01:12:00,
2013-09-05 21:17:00,67.5,50.8,30.08,NW,325,0.0,0.0,55,0.00,,,0.00,Wunderground v.1.15,2013-09-06 01:17:00,
2013-09-05 21:22:00,66.9,51.2,30.09,NW,325,0.0,0.0,57,0.00,,,0.00,Wunderground v.1.15,2013-09-06 01:22:00,
2013-09-05 21:27:00,66.3,51.5,30.09,NW,325,0.0,0.0,59,0.00,,,0.00,Wunderground v.1.15,2013-09-06 01:27:00,
2013-09-05 21:32:00,65.8,50.6,30.09,NW,325,0.0,0.0,58,0.00,,,0.00,Wunderground v.1.15,2013-09-06 01:32:00,
2013-09-05 21:38:00,66.0,50.8,30.09,NW,325,0.0,1.0,58,0.00,,,0.00,Wunderground v.1.15,2013-09-06 01:38:00,
2013-09-05 21:44:00,66.4,51.2,30.09,NW,325,0.0,0.0,58,0.00,,,0.00,Wunderground v.1.15,2013-09-06 01:44:00,
2013-09-05 21:49:00,66.5,51.3,30.10,NW,325,0.0,0.0,58,0.00,,,0.00,Wunderground v.1.15,2013-09-06 01:49:00,
2013-09-05 21:55:00,66.2,50.5,30.10,NW,325,0.0,0.0,57,0.00,,,0.00,Wunderground v.1.15,2013-09-06 01:55:00,
2013-09-05 22:01:00,65.5,51.7,30.10,NW,325,0.0,0.0,61,0.00,,,0.00,Wunderground v.1.15,2013-09-06 02:01:00,
2013-09-05 22:06:00,64.1,52.1,30.10,NW,325,0.0,0.0,65,0.00,,,0.00,Wunderground v.1.15,2013-09-06 02:06:00,
2013-09-05 22:12:00,63.0,51.9,30.11,NW,325,0.0,0.0,67,0.00,,,0.00,Wunderground v.1.15,2013-09-06 02:12:00,
2013-09-05 22:17:00,62.3,52.0,30.11,NW,325,0.0,0.0,69,0.00,,,0.00,Wunderground v.1.15,2013-09-06 02:17:00,
2013-09-05 22:22:00,61.6,52.1,30.11,NW,325,0.0,0.0,71,0.00,,,0.00,Wunderground v.1.15,2013-09-06 02:22:00,
2013-09-05 22:28:00,60.8,51.7,30.11,NW,325,0.0,0.0,72,0.00,,,0.00,Wunderground v.1.15,2013-09-06 02:28:00,
2013-09-05 22:34:00,59.6,52.0,30.11,NW,325,0.0,0.0,76,0.00,,,0.00,Wunderground v.1.15,2013-09-06 02:34:00,
2013-09-05 22:40:00,58.4,51.2,30.11,NW,325,0.0,0.0,77,0.00,,,0.00,Wunderground v.1.15,2013-09-06 02:40:00,
2013-09-05 22:46:00,57.5,50.7,30.11,NW,325,0.0,0.0,78,0.00,,,0.00,Wunderground v.1.15,2013-09-06 02:46:00,
2013-09-05 22:52:00,57.0,50.9,30.11,NW,325,0.0,0.0,80,0.00,,,0.00,Wunderground v.1.15,2013-09-06 02:52:00,
2013-09-05 22:58:00,56.4,50.6,30.11,NW,325,0.0,0.0,81,0.00,,,0.00,Wunderground v.1.15,2013-09-06 02:58:00,
2013-09-05 23:06:00,55.2,50.1,30.11,NW,325,0.0,0.0,83,0.00,,,0.00,Wunderground v.1.15,2013-09-06 03:06:00,
2013-09-05 23:12:00,54.4,49.7,30.12,NW,325,1.0,2.0,84,0.00,,,0.00,Wunderground v.1.15,2013-09-06 03:12:00,
2013-09-05 23:20:00,54.0,49.9,30.12,NW,325,0.0,2.0,86,0.00,,,0.00,Wunderground v.1.15,2013-09-06 03:20:00,
2013-09-05 23:26:00,54.0,49.9,30.12,NW,325,0.0,0.0,86,0.00,,,0.00,Wunderground v.1.15,2013-09-06 03:26:00,
2013-09-05 23:32:00,54.1,50.0,30.12,NW,325,0.0,0.0,86,0.00,,,0.00,Wunderground v.1.15,2013-09-06 03:32:00,
2013-09-05 23:39:00,54.2,50.1,30.12,NW,325,0.0,0.0,86,0.00,,,0.00,Wunderground v.1.15,2013-09-06 03:39:00,
2013-09-05 23:46:00,54.2,50.1,30.12,NW,325,0.0,0.0,86,0.00,,,0.00,Wunderground v.1.15,2013-09-06 03:46:00,
2013-09-05 23:51:00,54.2,50.1,30.12,NW,325,0.0,0.0,86,0.00,,,0.00,Wunderground v.1.15,2013-09-06 03:51:00,
2013-09-05 23:56:00,54.6,50.5,30.12,NW,325,0.0,0.0,86,0.00,,,0.00,Wunderground v.1.15,2013-09-06 03:56:00,